createdAt,value
2023-05-16T00:02:17.773Z,99.90
2023-05-16T00:05:42.767Z,99.90
2023-05-16T00:09:07.720Z,99.90
2023-05-16T00:12:32.865Z,99.90
2023-05-16T00:15:59.410Z,99.90
2023-05-16T00:19:26.588Z,99.90
2023-05-16T00:22:50.251Z,99.90
2023-05-16T00:26:14.683Z,99.90
2023-05-16T00:29:38.624Z,99.90
2023-05-16T00:33:04.283Z,99.90
2023-05-16T00:36:28.987Z,99.90
2023-05-16T00:39:54.922Z,99.90
2023-05-16T00:43:18.671Z,99.90
2023-05-16T00:46:42.739Z,99.90
2023-05-16T00:50:09.026Z,99.90
2023-05-16T00:53:33.073Z,99.90
2023-05-16T00:56:57.167Z,99.90
2023-05-16T01:00:21.977Z,99.90
2023-05-16T01:03:47.164Z,99.90
2023-05-16T01:07:13.030Z,99.90
2023-05-16T01:10:45.142Z,99.90
2023-05-16T01:14:19.027Z,99.90
2023-05-16T01:17:57.357Z,99.90
2023-05-16T01:21:32.470Z,99.90
2023-05-16T01:25:10.090Z,99.90
2023-05-16T01:28:36.424Z,99.90
2023-05-16T01:32:00.113Z,99.90
2023-05-16T01:35:25.346Z,99.90
2023-05-16T01:39:01.334Z,99.90
2023-05-16T01:42:28.264Z,99.90
2023-05-16T01:45:58.056Z,99.90
2023-05-16T01:49:26.789Z,99.90
2023-05-16T01:52:57.301Z,99.90
2023-05-16T01:56:22.882Z,99.90
2023-05-16T01:59:47.978Z,99.90
2023-05-16T02:03:14.086Z,99.90
2023-05-16T02:06:39.623Z,99.90
2023-05-16T02:10:04.831Z,99.90
2023-05-16T02:13:32.964Z,99.90
2023-05-16T02:17:01.016Z,99.90
2023-05-16T02:20:27.292Z,99.90
2023-05-16T02:23:51.102Z,99.90
2023-05-16T02:27:14.814Z,99.90
2023-05-16T02:30:41.186Z,99.90
2023-05-16T02:34:05.364Z,99.90
2023-05-16T02:37:31.165Z,99.90
2023-05-16T02:40:54.767Z,99.90
2023-05-16T02:44:20.046Z,99.90
2023-05-16T02:47:43.786Z,99.90
2023-05-16T02:51:10.232Z,99.90
2023-05-16T02:54:36.329Z,99.90
2023-05-16T02:57:59.893Z,99.90
2023-05-16T03:01:24.141Z,99.90
2023-05-16T03:04:47.732Z,99.90
2023-05-16T03:08:11.840Z,99.90
2023-05-16T03:11:37.772Z,99.90
2023-05-16T03:15:01.903Z,99.90
2023-05-16T03:18:26.859Z,99.90
2023-05-16T03:21:50.886Z,99.90
2023-05-16T03:25:14.961Z,99.90
2023-05-16T03:28:42.649Z,99.90
2023-05-16T03:32:09.726Z,99.90
2023-05-16T03:35:34.059Z,99.90
2023-05-16T03:38:57.873Z,99.90
2023-05-16T03:42:21.965Z,99.90
2023-05-16T03:45:47.284Z,99.90
2023-05-16T03:49:10.912Z,99.90
2023-05-16T03:52:35.031Z,99.90
2023-05-16T03:55:59.151Z,99.90
2023-05-16T03:59:22.893Z,99.90
2023-05-16T04:02:48.425Z,99.90
2023-05-16T04:06:13.098Z,99.90
2023-05-16T04:09:37.667Z,99.90
2023-05-16T04:13:01.912Z,99.90
2023-05-16T04:16:26.055Z,99.90
2023-05-16T04:19:53.216Z,99.90
2023-05-16T04:23:18.180Z,99.90
2023-05-16T04:26:41.976Z,99.90
2023-05-16T04:30:06.816Z,99.90
2023-05-16T04:33:30.398Z,99.90
2023-05-16T04:36:55.481Z,99.90
2023-05-16T04:40:22.124Z,99.90
2023-05-16T04:43:46.128Z,99.90
2023-05-16T04:47:09.871Z,99.90
2023-05-16T04:50:33.977Z,99.90
2023-05-16T04:53:59.409Z,99.90
2023-05-16T04:57:27.652Z,99.90
2023-05-16T05:00:52.225Z,99.90
2023-05-16T05:04:17.641Z,99.90
2023-05-16T05:07:42.728Z,99.90
2023-05-16T05:11:08.418Z,99.90
2023-05-16T05:14:34.331Z,99.90
2023-05-16T05:18:02.005Z,99.90
2023-05-16T05:21:25.961Z,99.90
2023-05-16T05:24:49.577Z,99.90
2023-05-16T05:28:14.499Z,99.90
2023-05-16T05:31:38.270Z,99.90
2023-05-16T05:35:13.057Z,99.90
2023-05-16T05:39:10.431Z,99.90
2023-05-16T05:42:47.053Z,99.90
2023-05-16T05:46:12.779Z,99.90
2023-05-16T05:49:36.615Z,99.90
2023-05-16T05:53:00.214Z,99.90
2023-05-16T05:56:24.641Z,99.90
2023-05-16T05:59:48.317Z,99.90
2023-05-16T06:03:14.471Z,99.90
2023-05-16T06:06:40.020Z,99.90
2023-05-16T06:10:05.558Z,99.90
2023-05-16T06:13:29.347Z,99.90
2023-05-16T06:16:53.093Z,99.90
2023-05-16T06:20:18.288Z,99.90
2023-05-16T06:23:41.865Z,99.90
2023-05-16T06:27:05.884Z,99.90
2023-05-16T06:30:29.510Z,99.90
2023-05-16T06:33:53.173Z,99.90
2023-05-16T06:37:18.190Z,99.90
2023-05-16T06:40:42.006Z,99.90
2023-05-16T06:44:06.131Z,99.90
2023-05-16T06:47:29.841Z,99.90
2023-05-16T06:50:53.553Z,99.90
2023-05-16T06:54:18.622Z,99.90
2023-05-16T06:57:42.357Z,99.90
2023-05-16T07:01:07.473Z,99.90
2023-05-16T07:04:31.411Z,99.90
2023-05-16T07:07:55.084Z,99.90
2023-05-16T07:11:20.220Z,99.90
2023-05-16T07:14:44.357Z,99.90
2023-05-16T07:18:08.120Z,99.90
2023-05-16T07:21:31.983Z,99.90
2023-05-16T07:24:57.183Z,99.90
2023-05-16T07:28:24.659Z,99.90
2023-05-16T07:31:48.452Z,99.90
2023-05-16T07:35:13.177Z,99.90
2023-05-16T07:38:36.780Z,97.10
2023-05-16T07:42:00.556Z,93.50
2023-05-16T07:45:26.139Z,91.00
2023-05-16T07:48:50.096Z,90.20
2023-05-16T07:52:13.821Z,89.90
2023-05-16T07:55:37.514Z,90.70
2023-05-16T07:59:01.488Z,86.80
2023-05-16T08:02:30.638Z,81.50
2023-05-16T08:05:56.379Z,77.20
2023-05-16T08:09:20.804Z,74.50
2023-05-16T08:12:44.840Z,74.30
2023-05-16T08:16:08.893Z,77.10
2023-05-16T08:19:33.976Z,71.20
2023-05-16T08:22:57.588Z,74.50
2023-05-16T08:26:21.909Z,76.20
2023-05-16T08:29:45.680Z,80.50
2023-05-16T08:33:10.300Z,83.70
2023-05-16T08:36:36.264Z,79.10
2023-05-16T08:39:59.893Z,76.50
2023-05-16T08:43:23.837Z,77.70
2023-05-16T08:46:52.081Z,72.60
2023-05-16T08:50:17.080Z,66.80
2023-05-16T08:53:49.346Z,64.20
2023-05-16T08:57:14.505Z,64.70
2023-05-16T09:00:38.273Z,64.10
2023-05-16T09:04:02.522Z,67.50
2023-05-16T09:07:26.456Z,70.00
2023-05-16T09:10:51.413Z,70.30
2023-05-16T09:14:15.154Z,69.10
2023-05-16T09:17:41.821Z,64.00
2023-05-16T09:21:06.847Z,61.70
2023-05-16T09:24:30.479Z,57.80
2023-05-16T09:27:55.859Z,59.70
2023-05-16T09:31:26.501Z,62.60
2023-05-16T09:34:51.633Z,66.20
2023-05-16T09:38:17.216Z,67.50
2023-05-16T09:41:41.052Z,65.10
2023-05-16T09:45:07.104Z,59.50
2023-05-16T09:48:30.864Z,60.40
2023-05-16T09:51:54.583Z,60.00
2023-05-16T09:55:18.478Z,60.50
2023-05-16T09:58:43.886Z,63.50
2023-05-16T10:02:09.312Z,63.20
2023-05-16T10:05:33.423Z,62.10
2023-05-16T10:08:57.267Z,62.80
2023-05-16T10:12:24.075Z,59.60
2023-05-16T10:15:49.290Z,54.40
2023-05-16T10:19:14.795Z,52.10
2023-05-16T10:22:43.808Z,51.30
2023-05-16T10:26:08.575Z,51.70
2023-05-16T10:29:40.017Z,52.50
2023-05-16T10:33:11.551Z,50.00
2023-05-16T10:36:37.488Z,49.40
2023-05-16T10:40:05.269Z,51.50
2023-05-16T10:43:31.344Z,50.60
2023-05-16T10:46:55.029Z,47.20
2023-05-16T10:50:33.236Z,47.70
2023-05-16T10:54:06.605Z,49.60
2023-05-16T10:57:32.790Z,50.20
2023-05-16T11:01:24.777Z,51.30
2023-05-16T11:04:50.721Z,52.50
2023-05-16T11:08:15.635Z,51.60
2023-05-16T11:11:48.595Z,52.90
2023-05-16T11:15:22.412Z,53.50
2023-05-16T11:18:52.044Z,54.40
2023-05-16T11:22:24.955Z,55.50
2023-05-16T11:25:51.028Z,57.00
2023-05-16T11:29:16.571Z,58.60
2023-05-16T11:32:42.447Z,61.10
2023-05-16T11:36:15.910Z,62.30
2023-05-16T11:39:40.625Z,62.30
2023-05-16T11:43:07.088Z,64.40
2023-05-16T11:46:32.509Z,65.90
2023-05-16T11:49:59.170Z,65.80
2023-05-16T11:53:24.403Z,67.90
2023-05-16T11:56:48.183Z,67.90
2023-05-16T12:00:17.708Z,67.00
2023-05-16T12:03:42.834Z,68.20
2023-05-16T12:07:06.577Z,68.70
2023-05-16T12:10:34.334Z,66.60
2023-05-16T12:13:58.754Z,66.60
2023-05-16T12:17:22.679Z,62.50
2023-05-16T12:20:47.893Z,64.20
2023-05-16T12:24:13.012Z,62.70
2023-05-16T12:27:36.961Z,61.50
2023-05-16T12:31:01.235Z,61.30
2023-05-16T12:34:25.022Z,60.20
2023-05-16T12:37:50.545Z,59.20
2023-05-16T12:41:19.205Z,57.00
2023-05-16T12:44:46.526Z,56.80
2023-05-16T12:48:14.153Z,57.70
2023-05-16T12:51:38.063Z,61.60
2023-05-16T12:55:03.141Z,60.30
2023-05-16T12:58:31.518Z,58.00
2023-05-16T13:01:56.040Z,56.40
2023-05-16T13:05:21.978Z,56.80
2023-05-16T13:08:46.128Z,56.60
2023-05-16T13:12:11.593Z,56.70
2023-05-16T13:15:35.544Z,57.70
2023-05-16T13:19:00.271Z,54.90
2023-05-16T13:22:24.056Z,56.30
2023-05-16T13:25:49.660Z,55.30
2023-05-16T13:29:14.990Z,55.70
2023-05-16T13:32:38.888Z,55.60
2023-05-16T13:36:02.938Z,54.90
2023-05-16T13:39:26.843Z,53.40
2023-05-16T13:42:51.631Z,53.60
2023-05-16T13:46:16.736Z,53.30
2023-05-16T13:49:40.505Z,53.00
2023-05-16T13:53:04.425Z,54.10
2023-05-16T13:56:28.288Z,56.00
2023-05-16T14:03:22.833Z,59.60
2023-05-16T14:06:49.518Z,60.90
2023-05-16T14:10:13.362Z,61.40
2023-05-16T14:13:39.865Z,62.40
2023-05-16T14:17:04.442Z,62.60
2023-05-16T14:20:29.750Z,63.10
2023-05-16T14:23:53.463Z,62.20
2023-05-16T14:27:17.437Z,60.90
2023-05-16T14:30:41.272Z,60.30
2023-05-16T14:34:05.295Z,60.50
2023-05-16T14:37:30.312Z,59.90
2023-05-16T14:40:54.004Z,60.40
2023-05-16T14:44:18.250Z,61.00
2023-05-16T14:47:42.269Z,62.80
2023-05-16T14:51:06.232Z,64.30
2023-05-16T14:54:31.223Z,68.80
2023-05-16T14:57:59.402Z,70.00
2023-05-16T15:01:25.018Z,69.90
2023-05-16T15:04:48.966Z,69.00
2023-05-16T15:08:12.652Z,67.20
2023-05-16T15:11:37.639Z,66.40
2023-05-16T15:15:01.352Z,64.40
2023-05-16T15:18:25.232Z,64.60
2023-05-16T15:21:49.038Z,65.20
2023-05-16T15:25:12.825Z,64.90
2023-05-16T15:28:37.946Z,65.80
2023-05-16T15:32:06.068Z,65.50
2023-05-16T15:35:30.011Z,64.10
2023-05-16T15:38:53.867Z,64.40
2023-05-16T15:42:19.000Z,65.30
2023-05-16T15:45:45.185Z,66.50
2023-05-16T15:49:09.404Z,66.70
2023-05-16T15:52:33.523Z,65.70
2023-05-16T15:55:57.577Z,66.60
2023-05-16T15:59:21.126Z,66.00
2023-05-16T16:02:48.247Z,65.80
2023-05-16T16:06:12.064Z,63.80
2023-05-16T16:09:35.639Z,65.40
2023-05-16T16:13:02.821Z,66.00
2023-05-16T16:16:26.463Z,65.50
2023-05-16T16:19:51.622Z,64.80
2023-05-16T16:23:15.396Z,64.40
2023-05-16T16:26:39.130Z,64.00
2023-05-16T16:30:03.941Z,64.70
2023-05-16T16:33:27.920Z,66.30
2023-05-16T16:36:52.980Z,67.10
2023-05-16T16:40:16.782Z,68.50
2023-05-16T16:43:41.045Z,68.20
2023-05-16T16:47:05.348Z,68.40
2023-05-16T16:50:32.130Z,69.20
2023-05-16T16:53:59.680Z,69.10
2023-05-16T16:57:24.012Z,68.90
2023-05-16T17:00:47.929Z,69.40
2023-05-16T17:04:11.643Z,69.20
2023-05-16T17:07:35.970Z,67.00
2023-05-16T17:11:07.141Z,67.10
2023-05-16T17:14:30.991Z,67.70
2023-05-16T17:17:55.019Z,68.40
2023-05-16T17:21:21.844Z,69.50
2023-05-16T17:24:46.249Z,70.20
2023-05-16T17:28:11.321Z,70.60
2023-05-16T17:31:35.077Z,70.00
2023-05-16T17:35:03.199Z,70.50
2023-05-16T17:38:31.246Z,71.30
2023-05-16T17:41:56.827Z,71.30
2023-05-16T17:45:22.922Z,72.90
2023-05-16T17:48:46.995Z,73.80
2023-05-16T17:52:14.203Z,74.70
2023-05-16T17:55:38.637Z,75.50
2023-05-16T17:59:03.376Z,75.80
2023-05-16T18:02:31.766Z,76.10
2023-05-16T18:05:56.576Z,77.10
2023-05-16T18:09:23.395Z,77.20
2023-05-16T18:12:48.080Z,77.80
2023-05-16T18:16:12.635Z,77.80
2023-05-16T18:19:40.637Z,78.30
2023-05-16T18:23:08.177Z,78.80
2023-05-16T18:26:37.471Z,79.00
2023-05-16T18:30:03.104Z,80.30
2023-05-16T18:33:29.443Z,80.60
2023-05-16T18:36:56.820Z,81.00
2023-05-16T18:40:25.461Z,79.90
2023-05-16T18:43:49.209Z,80.40
2023-05-16T18:47:16.873Z,81.40
2023-05-16T18:50:43.801Z,82.30
2023-05-16T18:54:09.710Z,83.50
2023-05-16T18:57:36.808Z,83.70
2023-05-16T19:01:01.643Z,85.00
2023-05-16T19:04:27.597Z,85.60
2023-05-16T19:07:54.211Z,86.40
2023-05-16T19:11:19.582Z,86.90
2023-05-16T19:14:44.205Z,87.20
2023-05-16T19:18:08.429Z,87.80
2023-05-16T19:21:33.113Z,88.70
2023-05-16T19:24:57.341Z,89.40
2023-05-16T19:28:26.719Z,90.00
2023-05-16T19:31:51.396Z,90.40
2023-05-16T19:35:15.170Z,91.00
2023-05-16T19:38:39.040Z,91.20
2023-05-16T19:42:07.367Z,91.20
2023-05-16T19:45:32.938Z,91.70
2023-05-16T19:48:57.164Z,92.20
2023-05-16T19:52:22.070Z,92.50
2023-05-16T19:55:51.086Z,92.70
2023-05-16T19:59:14.861Z,92.70
2023-05-16T20:02:43.616Z,93.30
2023-05-16T20:06:08.266Z,93.20
2023-05-16T20:09:32.205Z,93.30
2023-05-16T20:12:56.175Z,93.50
2023-05-16T20:16:20.665Z,93.80
2023-05-16T20:19:46.956Z,94.20
2023-05-16T20:23:11.182Z,94.30
2023-05-16T20:26:37.432Z,94.70
2023-05-16T20:30:03.846Z,95.10
2023-05-16T20:33:28.212Z,95.30
2023-05-16T20:36:53.611Z,95.80
2023-05-16T20:40:17.245Z,96.30
2023-05-16T20:43:41.196Z,96.70
2023-05-16T20:47:05.690Z,96.90
2023-05-16T20:50:29.774Z,97.20
2023-05-16T20:53:54.690Z,97.50
2023-05-16T20:57:21.617Z,97.70
2023-05-16T21:00:45.277Z,97.80
2023-05-16T21:04:09.590Z,98.10
2023-05-16T21:07:34.590Z,98.20
2023-05-16T21:11:05.019Z,98.40
2023-05-16T21:14:29.216Z,98.50
2023-05-16T21:17:58.276Z,98.60
2023-05-16T21:21:22.277Z,98.90
2023-05-16T21:24:46.226Z,98.60
2023-05-16T21:28:11.598Z,98.60
2023-05-16T21:31:35.220Z,98.80
2023-05-16T21:35:01.739Z,99.00
2023-05-16T21:38:25.776Z,99.10
2023-05-16T21:41:50.413Z,99.40
2023-05-16T21:45:16.762Z,99.60
2023-05-16T21:48:41.269Z,99.70
2023-05-16T21:52:07.432Z,99.90
2023-05-16T21:55:32.191Z,99.90
2023-05-16T21:58:57.791Z,99.90
2023-05-16T22:02:23.656Z,99.90
2023-05-16T22:05:48.325Z,99.90
2023-05-16T22:09:12.778Z,99.90
2023-05-16T22:12:37.228Z,99.90
2023-05-16T22:16:04.571Z,99.90
2023-05-16T22:19:30.754Z,99.90
2023-05-16T22:22:56.808Z,99.90
2023-05-16T22:26:21.242Z,99.90
2023-05-16T22:29:45.491Z,99.90
2023-05-16T22:33:09.412Z,99.90
2023-05-16T22:36:37.071Z,99.90
2023-05-16T22:40:01.304Z,99.90
2023-05-16T22:43:25.309Z,99.90
2023-05-16T22:46:49.244Z,99.90
2023-05-16T22:50:13.308Z,99.90
2023-05-16T22:53:38.813Z,99.90
2023-05-16T22:57:05.681Z,99.90
2023-05-16T23:00:29.332Z,99.90
2023-05-16T23:03:56.442Z,99.90
2023-05-16T23:07:20.021Z,99.90
2023-05-16T23:10:45.718Z,99.90
2023-05-16T23:14:09.420Z,99.90
2023-05-16T23:17:33.301Z,99.90
2023-05-16T23:20:57.340Z,99.90
2023-05-16T23:24:21.276Z,99.90
2023-05-16T23:27:46.653Z,99.90
2023-05-16T23:31:10.245Z,99.90
2023-05-16T23:34:34.314Z,99.90
2023-05-16T23:37:59.844Z,99.90
2023-05-16T23:41:23.641Z,99.90
2023-05-16T23:44:48.717Z,99.90
2023-05-16T23:48:13.411Z,99.90
2023-05-16T23:51:55.992Z,99.90
2023-05-16T23:55:21.515Z,99.90
2023-05-16T23:58:45.344Z,99.90
